Bargerville, Illinois
Current Conditions -  °F | °C
As of 3:15 PM on Saturday 22 Nov 2014 (Local Time) from KM30 Reporting Station
Overcast Overcast  
Wind Chill: 64°   Ceiling: 5000
Heat Index: 64°   Visibility: 10mi
Dew Point: 40°   Wind: 7mph
Humidity: 42%   Direction: 190°S
Pressure: 30.06"   Gusts: NA
Location:  37.2288°N, 88.7044°W
Report Text: KM30 222115Z AUTO 19006KT 10SM OVC050 18/05 A3006 RMK AO2 T01780046
Loading
Personal Weather Stations






























Interactive Weather Map New forecast layout! Learn more

10-Day Weather Forecast

Advertisements
Track Severe Weather on mobile